Time;durP1;ratioP1;P1;durP2;ratioP2;P2;SDS_P1;SDS_P2;PMS_P1;PMS_P2;Temp;Humidity;BMP_temperature;BMP_pressure;BME280_temperature;BME280_humidity;BME280_pressure;Samples;Min_cycle;Max_cycle;Signal;HPM_P1;HPM_P2
2023/01/15 00:01:45;;;;;;;0.40;0.40;;;;;;;;;;5053519;28;20028;-75
2023/01/15 00:04:11;;;;;;;0.77;0.52;;;;;;;;;;5054653;28;20549;-74
2023/01/15 00:06:38;;;;;;;1.13;0.60;;;;;;;;;;5052024;28;20083;-75
2023/01/15 00:09:05;;;;;;;1.95;0.50;;;;;;;;;;5053806;28;20037;-75
2023/01/15 00:11:31;;;;;;;0.32;0.32;;;;;;;;;;5059638;28;20665;-75
2023/01/15 00:13:57;;;;;;;2.83;0.60;;;;;;;;;;5052393;28;20028;-75
2023/01/15 00:16:24;;;;;;;1.42;0.40;;;;;;;;;;5061184;28;20399;-74
2023/01/15 00:19:19;;;;;;;0.50;0.50;;;;;;;;;;5061306;28;20025;-74
2023/01/15 00:21:56;;;;;;;1.98;0.55;;;;;;;;;;5052024;28;20070;-74
2023/01/15 00:29:53;;;;;;;2.75;0.57;;;;;;;;;;5055361;28;20033;-74
2023/01/15 00:32:19;;;;;;;0.30;0.30;;;;;;;;;;5056922;28;20032;-74
2023/01/15 00:34:45;;;;;;;2.70;0.60;;;;;;;;;;5052854;28;20029;-75
2023/01/15 00:37:11;;;;;;;2.00;0.40;;;;;;;;;;5061219;28;20016;-75
2023/01/15 00:39:37;;;;;;;1.42;0.50;;;;;;;;;;5057819;28;20020;-75
2023/01/15 00:42:03;;;;;;;0.50;0.40;;;;;;;;;;5057478;28;20116;-76
2023/01/15 00:44:31;;;;;;;0.68;0.40;;;;;;;;;;5056347;28;20628;-76
2023/01/15 00:46:57;;;;;;;0.43;0.30;;;;;;;;;;5053012;28;20137;-75
2023/01/15 00:49:23;;;;;;;0.52;0.52;;;;;;;;;;5054161;28;20021;-76
2023/01/15 00:51:50;;;;;;;1.25;0.60;;;;;;;;;;5063176;28;20407;-76
2023/01/15 00:54:16;;;;;;;1.67;0.60;;;;;;;;;;5059150;28;20017;-76
2023/01/15 00:56:42;;;;;;;2.47;0.60;;;;;;;;;;5063635;28;20028;-76
2023/01/15 00:59:08;;;;;;;0.60;0.40;;;;;;;;;;5054701;28;20021;-76
2023/01/15 01:01:34;;;;;;;0.80;0.30;;;;;;;;;;5049728;28;20904;-75
2023/01/15 01:04:00;;;;;;;0.68;0.60;;;;;;;;;;5061639;28;20021;-74
2023/01/15 01:06:26;;;;;;;0.70;0.70;;;;;;;;;;5050793;28;20048;-75
2023/01/15 01:08:52;;;;;;;0.43;0.28;;;;;;;;;;5059999;28;20032;-76
2023/01/15 01:11:20;;;;;;;0.70;0.40;;;;;;;;;;5057146;28;20043;-75
2023/01/15 01:13:51;;;;;;;1.25;0.47;;;;;;;;;;5051505;28;20024;-75
2023/01/15 01:16:17;;;;;;;;;;;;;;;;;;5057295;28;20107;-75
2023/01/15 01:18:46;;;;;;;0.60;0.38;;;;;;;;;;5057443;28;20046;-76
2023/01/15 01:21:12;;;;;;;0.63;0.40;;;;;;;;;;5049498;28;20016;-76
2023/01/15 01:23:38;;;;;;;0.55;0.50;;;;;;;;;;5059985;28;20017;-76
2023/01/15 01:26:04;;;;;;;0.40;0.40;;;;;;;;;;5057920;28;20029;-76
2023/01/15 01:28:30;;;;;;;1.20;0.40;;;;;;;;;;5056455;28;20059;-75
2023/01/15 01:31:08;;;;;;;1.00;0.57;;;;;;;;;;5061605;28;20044;-75
2023/01/15 01:33:34;;;;;;;0.60;0.50;;;;;;;;;;5054200;28;20116;-76
2023/01/15 01:36:00;;;;;;;0.30;0.30;;;;;;;;;;5062998;28;20045;-76
2023/01/15 01:38:26;;;;;;;0.90;0.35;;;;;;;;;;5051672;28;20033;-76
2023/01/15 01:40:52;;;;;;;0.32;0.32;;;;;;;;;;5053610;28;20035;-77
2023/01/15 01:43:26;;;;;;;0.28;0.22;;;;;;;;;;5060754;28;20020;-76
2023/01/15 01:45:55;;;;;;;0.98;0.30;;;;;;;;;;5063444;28;20028;-76
2023/01/15 01:48:25;;;;;;;0.65;0.40;;;;;;;;;;5055862;28;20040;-76
2023/01/15 01:51:27;;;;;;;0.45;0.40;;;;;;;;;;5055214;28;20294;-76
2023/01/15 01:53:46;;;;;;;0.45;0.40;;;;;;;;;;5056193;28;20029;-76
2023/01/15 01:56:16;;;;;;;0.30;0.30;;;;;;;;;;5059025;28;20025;-76
2023/01/15 01:58:42;;;;;;;0.30;0.30;;;;;;;;;;5060643;28;20135;-76
2023/01/15 02:01:08;;;;;;;0.28;0.28;;;;;;;;;;5058327;28;20078;-76
2023/01/15 02:03:58;;;;;;;0.52;0.38;;;;;;;;;;5062378;28;20032;-75
2023/01/15 02:06:25;;;;;;;0.35;0.30;;;;;;;;;;5051603;28;20033;-76
2023/01/15 02:08:51;;;;;;;0.55;0.45;;;;;;;;;;5056932;28;20120;-76
2023/01/15 02:11:19;;;;;;;0.52;0.30;;;;;;;;;;5054236;28;20365;-76
2023/01/15 02:14:04;;;;;;;0.30;0.30;;;;;;;;;;5053274;28;20091;-76
2023/01/15 02:16:33;;;;;;;0.80;0.47;;;;;;;;;;5063574;28;20064;-76
2023/01/15 02:19:09;;;;;;;0.40;0.40;;;;;;;;;;5058153;28;20033;-76
2023/01/15 02:21:55;;;;;;;0.30;0.30;;;;;;;;;;5064474;28;20020;-76
2023/01/15 02:24:43;;;;;;;0.40;0.40;;;;;;;;;;5064154;28;20035;-76
2023/01/15 02:27:09;;;;;;;0.20;0.20;;;;;;;;;;5063720;28;20391;-76
2023/01/15 02:29:48;;;;;;;1.55;0.40;;;;;;;;;;5056258;28;20036;-76
2023/01/15 02:32:18;;;;;;;0.20;0.20;;;;;;;;;;5058174;28;20626;-76
2023/01/15 02:34:48;;;;;;;0.30;0.30;;;;;;;;;;5057461;28;20263;-76
2023/01/15 02:37:16;;;;;;;0.32;0.30;;;;;;;;;;5057256;28;20036;-76
2023/01/15 02:39:43;;;;;;;0.47;0.35;;;;;;;;;;5057839;28;20024;-75
2023/01/15 02:42:13;;;;;;;0.20;0.20;;;;;;;;;;5054304;28;20116;-76
2023/01/15 02:44:41;;;;;;;0.80;0.40;;;;;;;;;;5062294;28;20060;-76
2023/01/15 02:47:08;;;;;;;0.63;0.38;;;;;;;;;;5053823;28;20028;-76
2023/01/15 02:49:39;;;;;;;0.38;0.38;;;;;;;;;;5057494;28;20041;-75
2023/01/15 02:52:07;;;;;;;0.55;0.40;;;;;;;;;;5056218;28;20045;-76
2023/01/15 02:54:37;;;;;;;0.30;0.30;;;;;;;;;;5059801;28;20086;-76
2023/01/15 02:57:03;;;;;;;0.30;0.30;;;;;;;;;;5056044;28;20028;-76
2023/01/15 02:59:49;;;;;;;0.95;0.40;;;;;;;;;;5058371;28;20220;-76
2023/01/15 03:02:27;;;;;;;0.20;0.13;;;;;;;;;;5059666;28;20029;-75
2023/01/15 03:05:01;;;;;;;0.10;0.10;;;;;;;;;;5060841;28;20037;-75
2023/01/15 03:07:31;;;;;;;0.20;0.20;;;;;;;;;;5061071;28;20059;-76
2023/01/15 03:09:58;;;;;;;0.25;0.25;;;;;;;;;;5056295;28;20035;-75
2023/01/15 03:12:27;;;;;;;0.10;0.10;;;;;;;;;;5056286;28;20037;-75
2023/01/15 03:14:53;;;;;;;0.55;0.28;;;;;;;;;;5056772;28;20024;-75
2023/01/15 03:17:31;;;;;;;1.75;0.28;;;;;;;;;;5059941;28;20048;-75
2023/01/15 03:19:58;;;;;;;0.77;0.32;;;;;;;;;;5050797;28;20017;-74
2023/01/15 03:22:32;;;;;;;3.20;0.30;;;;;;;;;;5058025;28;20021;-75
2023/01/15 03:25:01;;;;;;;0.40;0.30;;;;;;;;;;5052052;28;20131;-76
2023/01/15 03:27:27;;;;;;;0.20;0.20;;;;;;;;;;5059944;28;20091;-75
2023/01/15 03:29:55;;;;;;;0.20;0.15;;;;;;;;;;5050797;28;20047;-76
2023/01/15 03:32:21;;;;;;;0.28;0.28;;;;;;;;;;5050719;28;20135;-76
2023/01/15 03:34:51;;;;;;;0.38;0.20;;;;;;;;;;5054411;28;20031;-75
2023/01/15 03:37:18;;;;;;;1.13;0.70;;;;;;;;;;5058195;28;20078;-75
2023/01/15 03:39:44;;;;;;;0.20;0.20;;;;;;;;;;5050511;28;20040;-76
2023/01/15 03:42:17;;;;;;;0.20;0.20;;;;;;;;;;5050562;28;20471;-76
2023/01/15 03:45:06;;;;;;;0.73;0.57;;;;;;;;;;5056342;28;20036;-75
2023/01/15 03:47:41;;;;;;;1.25;0.47;;;;;;;;;;5059208;28;20033;-76
2023/01/15 03:50:18;;;;;;;0.30;0.30;;;;;;;;;;5057732;28;20115;-76
2023/01/15 03:52:47;;;;;;;0.30;0.30;;;;;;;;;;5064183;28;20025;-76
2023/01/15 03:55:25;;;;;;;0.28;0.28;;;;;;;;;;5055643;28;20024;-75
2023/01/15 03:58:11;;;;;;;0.35;0.08;;;;;;;;;;5063220;28;20052;-76
2023/01/15 04:00:40;;;;;;;3.65;0.35;;;;;;;;;;5054464;28;20033;-75
2023/01/15 04:03:08;;;;;;;0.30;0.30;;;;;;;;;;5050512;28;20035;-76
2023/01/15 04:05:34;;;;;;;0.20;0.20;;;;;;;;;;5060573;28;20032;-76
2023/01/15 04:08:00;;;;;;;0.25;0.25;;;;;;;;;;5057145;28;20024;-75
2023/01/15 04:10:26;;;;;;;0.28;0.28;;;;;;;;;;5054366;28;20029;-75
2023/01/15 04:12:52;;;;;;;0.88;0.40;;;;;;;;;;5056229;28;21877;-75
2023/01/15 04:15:18;;;;;;;0.38;0.30;;;;;;;;;;5056256;28;20403;-76
2023/01/15 04:17:44;;;;;;;0.30;0.30;;;;;;;;;;5060194;28;20449;-76
2023/01/15 04:20:11;;;;;;;0.20;0.20;;;;;;;;;;5056773;28;20043;-76
2023/01/15 04:22:37;;;;;;;0.10;0.10;;;;;;;;;;5056212;28;20033;-75
2023/01/15 04:25:04;;;;;;;0.20;0.20;;;;;;;;;;5060334;28;20021;-76
2023/01/15 04:27:30;;;;;;;0.90;0.85;;;;;;;;;;5059973;28;20116;-75
2023/01/15 04:29:56;;;;;;;0.28;0.28;;;;;;;;;;5059996;28;20642;-76
2023/01/15 04:32:22;;;;;;;0.40;0.20;;;;;;;;;;5061019;28;20053;-75
2023/01/15 04:34:48;;;;;;;0.32;0.20;;;;;;;;;;5055264;28;20016;-75
2023/01/15 04:37:14;;;;;;;0.20;0.20;;;;;;;;;;5058617;28;20557;-75
2023/01/15 04:39:40;;;;;;;0.30;0.30;;;;;;;;;;5064680;28;20036;-75
2023/01/15 04:44:50;;;;;;;0.25;0.17;;;;;;;;;;5066487;28;20067;-75
2023/01/15 04:47:16;;;;;;;1.08;0.20;;;;;;;;;;5059555;28;20047;-75
2023/01/15 04:49:42;;;;;;;0.30;0.30;;;;;;;;;;5059228;28;20079;-75
2023/01/15 04:52:08;;;;;;;1.00;0.32;;;;;;;;;;5055256;28;20029;-76
2023/01/15 04:54:34;;;;;;;0.20;0.20;;;;;;;;;;5058138;28;20021;-75
2023/01/15 04:57:00;;;;;;;0.10;0.10;;;;;;;;;;5058348;28;20379;-75
2023/01/15 04:59:26;;;;;;;0.88;0.40;;;;;;;;;;5055893;28;20020;-75
2023/01/15 05:01:53;;;;;;;0.20;0.20;;;;;;;;;;5059680;28;20033;-76
2023/01/15 05:04:19;;;;;;;0.13;0.13;;;;;;;;;;5058435;28;20033;-75
2023/01/15 05:06:45;;;;;;;0.20;0.15;;;;;;;;;;5058751;28;20078;-76
2023/01/15 05:09:11;;;;;;;0.15;0.15;;;;;;;;;;5055037;28;20033;-76
2023/01/15 05:11:40;;;;;;;0.20;0.20;;;;;;;;;;5057075;28;20464;-75
2023/01/15 05:14:06;;;;;;;0.35;0.25;;;;;;;;;;5056308;28;20029;-75
2023/01/15 05:16:33;;;;;;;0.38;0.20;;;;;;;;;;5057939;28;20055;-75
2023/01/15 05:19:03;;;;;;;0.10;0.10;;;;;;;;;;5061637;28;20020;-75
2023/01/15 05:21:30;;;;;;;0.25;0.25;;;;;;;;;;5058854;28;20044;-75
2023/01/15 05:23:59;;;;;;;0.13;0.13;;;;;;;;;;5059708;28;20392;-75
2023/01/15 05:26:25;;;;;;;0.22;0.22;;;;;;;;;;5055042;28;20548;-75
2023/01/15 05:28:54;;;;;;;0.25;0.20;;;;;;;;;;5051402;28;20466;-75
2023/01/15 05:31:21;;;;;;;0.20;0.20;;;;;;;;;;5049475;28;20052;-75
2023/01/15 05:33:47;;;;;;;0.10;0.10;;;;;;;;;;5063683;28;20471;-75
2023/01/15 05:36:15;;;;;;;0.35;0.20;;;;;;;;;;5056027;28;20029;-76
2023/01/15 05:38:41;;;;;;;0.30;0.30;;;;;;;;;;5056004;28;20115;-75
2023/01/15 05:43:54;;;;;;;0.17;0.17;;;;;;;;;;5060319;28;20044;-76
2023/01/15 05:46:21;;;;;;;0.20;0.20;;;;;;;;;;5056534;28;20052;-75
2023/01/15 05:48:47;;;;;;;0.20;0.20;;;;;;;;;;5058683;28;20028;-75
2023/01/15 05:51:13;;;;;;;0.20;0.20;;;;;;;;;;5050075;28;20028;-75
2023/01/15 05:53:39;;;;;;;0.32;0.15;;;;;;;;;;5065386;28;20055;-75
2023/01/15 05:56:05;;;;;;;0.65;0.30;;;;;;;;;;5057644;28;20021;-75
2023/01/15 05:58:31;;;;;;;0.10;0.10;;;;;;;;;;5059870;28;20345;-75
2023/01/15 06:00:57;;;;;;;0.15;0.10;;;;;;;;;;5067356;28;20029;-75
2023/01/15 06:03:24;;;;;;;0.10;0.10;;;;;;;;;;5056855;28;20060;-75
2023/01/15 06:05:54;;;;;;;0.20;0.20;;;;;;;;;;5057285;28;20467;-76
2023/01/15 06:08:21;;;;;;;0.20;0.20;;;;;;;;;;5067610;28;20067;-75
2023/01/15 06:10:48;;;;;;;0.10;0.10;;;;;;;;;;5065336;28;20040;-75
2023/01/15 06:13:14;;;;;;;2.17;0.20;;;;;;;;;;5054783;28;20028;-75
2023/01/15 06:15:40;;;;;;;0.08;0.08;;;;;;;;;;5063207;28;20089;-75
2023/01/15 06:18:06;;;;;;;0.68;0.32;;;;;;;;;;5054691;28;20029;-75
2023/01/15 06:20:34;;;;;;;0.90;0.13;;;;;;;;;;5061044;28;20028;-75
2023/01/15 06:23:00;;;;;;;0.20;0.20;;;;;;;;;;5058335;28;20028;-75
2023/01/15 06:25:26;;;;;;;0.15;0.15;;;;;;;;;;5066250;28;20317;-76
2023/01/15 06:27:52;;;;;;;0.38;0.10;;;;;;;;;;5063055;28;20040;-75
2023/01/15 06:30:18;;;;;;;0.08;0.08;;;;;;;;;;5052841;28;20472;-75
2023/01/15 06:32:44;;;;;;;0.15;0.15;;;;;;;;;;5051497;28;20283;-75
2023/01/15 06:35:11;;;;;;;1.17;0.30;;;;;;;;;;5051465;28;20029;-75
2023/01/15 06:37:37;;;;;;;0.40;0.20;;;;;;;;;;5059000;28;20079;-75
2023/01/15 06:40:03;;;;;;;1.20;0.17;;;;;;;;;;5061586;28;20041;-75
2023/01/15 06:47:59;;;;;;;0.10;0.10;;;;;;;;;;5063602;28;20582;-75
2023/01/15 06:50:25;;;;;;;0.20;0.20;;;;;;;;;;5054582;28;20029;-76
2023/01/15 06:52:51;;;;;;;0.20;0.20;;;;;;;;;;5057391;28;20163;-75
2023/01/15 06:55:17;;;;;;;0.10;0.10;;;;;;;;;;5063881;28;20029;-75
2023/01/15 06:57:44;;;;;;;0.20;0.20;;;;;;;;;;5062274;28;20387;-76
2023/01/15 07:00:10;;;;;;;0.30;0.20;;;;;;;;;;5056693;28;20024;-75
2023/01/15 07:02:37;;;;;;;0.40;0.25;;;;;;;;;;5053571;28;20700;-75
2023/01/15 07:05:09;;;;;;;0.10;0.10;;;;;;;;;;5061139;28;20075;-76
2023/01/15 07:07:35;;;;;;;0.28;0.28;;;;;;;;;;5065048;28;20025;-75
2023/01/15 07:10:01;;;;;;;0.20;0.20;;;;;;;;;;5061217;28;20085;-75
2023/01/15 07:12:27;;;;;;;0.20;0.20;;;;;;;;;;5056847;28;20036;-75
2023/01/15 07:14:53;;;;;;;0.30;0.20;;;;;;;;;;5059206;28;20029;-75
2023/01/15 07:17:19;;;;;;;0.35;0.25;;;;;;;;;;5055331;28;20043;-75
2023/01/15 07:19:45;;;;;;;0.20;0.20;;;;;;;;;;5054067;28;20402;-76
2023/01/15 07:22:12;;;;;;;0.20;0.20;;;;;;;;;;5049801;28;20025;-75
2023/01/15 07:24:38;;;;;;;0.98;0.20;;;;;;;;;;5051163;28;20438;-75
2023/01/15 07:27:04;;;;;;;0.10;0.10;;;;;;;;;;5066165;28;20032;-75
2023/01/15 07:29:30;;;;;;;0.10;0.10;;;;;;;;;;5052867;28;20054;-75
2023/01/15 07:31:56;;;;;;;0.10;0.10;;;;;;;;;;5050538;28;21383;-75
2023/01/15 07:34:22;;;;;;;0.10;0.10;;;;;;;;;;5050854;28;20037;-76
2023/01/15 07:36:48;;;;;;;0.30;0.30;;;;;;;;;;5060785;28;20021;-75
2023/01/15 07:39:14;;;;;;;0.10;0.10;;;;;;;;;;5061014;28;20023;-75
2023/01/15 07:50:06;;;;;;;0.20;0.20;;;;;;;;;;5054777;28;20040;-75
2023/01/15 07:52:35;;;;;;;0.65;0.30;;;;;;;;;;5059872;28;20127;-75
2023/01/15 07:55:02;;;;;;;0.40;0.40;;;;;;;;;;5056762;28;20029;-75
2023/01/15 07:57:29;;;;;;;0.10;0.10;;;;;;;;;;5067791;28;20724;-75
2023/01/15 07:59:55;;;;;;;0.10;0.10;;;;;;;;;;5062494;28;20032;-75
2023/01/15 08:02:21;;;;;;;0.80;0.30;;;;;;;;;;5067461;28;20104;-75
2023/01/15 08:04:47;;;;;;;0.10;0.10;;;;;;;;;;5064904;28;20124;-75
2023/01/15 08:07:13;;;;;;;0.35;0.20;;;;;;;;;;5056732;28;20519;-76
2023/01/15 08:09:39;;;;;;;0.20;0.20;;;;;;;;;;5064748;28;20051;-76
2023/01/15 08:17:38;;;;;;;0.88;0.35;;;;;;;;;;5057919;28;20094;-74
2023/01/15 08:20:05;;;;;;;0.77;0.38;;;;;;;;;;5059096;28;20051;-74
2023/01/15 08:22:31;;;;;;;1.00;0.47;;;;;;;;;;5062545;28;20452;-74
2023/01/15 08:24:58;;;;;;;1.05;0.30;;;;;;;;;;5054358;28;20083;-74
2023/01/15 08:27:24;;;;;;;0.10;0.10;;;;;;;;;;5050704;28;20042;-74
2023/01/15 08:29:50;;;;;;;1.08;0.25;;;;;;;;;;5059008;28;20028;-74
2023/01/15 08:32:25;;;;;;;4.20;0.38;;;;;;;;;;5056164;28;20515;-74
2023/01/15 08:34:51;;;;;;;0.93;0.50;;;;;;;;;;5057849;28;20057;-75
2023/01/15 08:37:26;;;;;;;0.95;0.50;;;;;;;;;;5055144;28;20028;-74
2023/01/15 08:39:52;;;;;;;1.33;0.35;;;;;;;;;;5060286;28;20502;-75
2023/01/15 08:42:21;;;;;;;3.45;0.90;;;;;;;;;;5055327;28;20036;-75
2023/01/15 08:44:47;;;;;;;0.60;0.60;;;;;;;;;;5056208;28;20356;-76
2023/01/15 08:47:14;;;;;;;0.52;0.40;;;;;;;;;;5060224;28;20107;-73
2023/01/15 08:49:39;;;;;;;1.95;0.47;;;;;;;;;;5059012;28;20028;-75
2023/01/15 08:52:05;;;;;;;0.95;0.55;;;;;;;;;;5056261;28;20541;-75
2023/01/15 08:54:31;;;;;;;2.97;0.50;;;;;;;;;;5054486;28;20384;-75
2023/01/15 08:56:58;;;;;;;0.20;0.20;;;;;;;;;;5065629;28;20102;-76
2023/01/15 08:59:24;;;;;;;1.13;0.38;;;;;;;;;;5051629;28;20139;-75
2023/01/15 09:01:50;;;;;;;2.00;0.55;;;;;;;;;;5054891;28;20021;-76
2023/01/15 09:04:17;;;;;;;0.75;0.30;;;;;;;;;;5057376;28;20025;-76
2023/01/15 09:06:43;;;;;;;0.70;0.70;;;;;;;;;;5053058;28;20040;-75
2023/01/15 09:09:12;;;;;;;0.30;0.30;;;;;;;;;;5053498;28;20021;-75
2023/01/15 09:11:43;;;;;;;1.35;0.50;;;;;;;;;;5057333;28;20520;-75
2023/01/15 09:14:30;;;;;;;0.38;0.30;;;;;;;;;;5061189;28;20348;-75
2023/01/15 09:16:57;;;;;;;0.25;0.25;;;;;;;;;;5054209;28;20032;-75
2023/01/15 09:19:23;;;;;;;0.40;0.30;;;;;;;;;;5050662;28;20541;-76
2023/01/15 09:21:48;;;;;;;0.40;0.40;;;;;;;;;;5060130;28;20032;-76
2023/01/15 09:24:15;;;;;;;0.22;0.22;;;;;;;;;;5059325;28;20063;-76
2023/01/15 09:26:41;;;;;;;0.30;0.25;;;;;;;;;;5058227;28;20032;-75
2023/01/15 09:29:07;;;;;;;1.17;0.77;;;;;;;;;;5056663;28;20037;-75
2023/01/15 09:31:34;;;;;;;0.68;0.40;;;;;;;;;;5057060;28;20055;-77
2023/01/15 09:34:00;;;;;;;3.30;0.50;;;;;;;;;;5060218;28;20155;-78
2023/01/15 09:36:28;;;;;;;1.65;0.40;;;;;;;;;;5051449;28;20031;-75
2023/01/15 09:38:54;;;;;;;0.68;0.52;;;;;;;;;;5060489;28;20025;-77
2023/01/15 09:44:33;;;;;;;2.65;0.70;;;;;;;;;;5042106;28;20037;-77
2023/01/15 09:47:08;;;;;;;0.93;0.68;;;;;;;;;;5061896;28;20037;-76
2023/01/15 09:49:49;;;;;;;1.65;0.70;;;;;;;;;;5057413;28;20029;-74
2023/01/15 09:52:22;;;;;;;0.40;0.40;;;;;;;;;;5053316;28;20036;-75
2023/01/15 09:54:57;;;;;;;1.77;0.90;;;;;;;;;;5044330;28;20033;-76
2023/01/15 09:57:25;;;;;;;2.35;0.82;;;;;;;;;;5055100;28;20446;-76
2023/01/15 09:59:53;;;;;;;1.35;0.70;;;;;;;;;;5059696;28;20460;-80
2023/01/15 10:02:22;;;;;;;2.40;0.80;;;;;;;;;;5056576;28;20036;-75
2023/01/15 10:04:50;;;;;;;0.85;0.80;;;;;;;;;;5048962;28;20037;-78
2023/01/15 10:07:23;;;;;;;2.28;0.75;;;;;;;;;;5045161;28;20025;-77
2023/01/15 10:09:54;;;;;;;1.77;0.82;;;;;;;;;;5055233;28;20029;-76
2023/01/15 10:12:37;;;;;;;3.00;0.82;;;;;;;;;;5052597;28;20040;-75
2023/01/15 10:15:14;;;;;;;1.92;0.93;;;;;;;;;;5056459;28;20024;-74
2023/01/15 10:17:49;;;;;;;0.93;0.70;;;;;;;;;;5045335;28;20054;-76
2023/01/15 10:20:24;;;;;;;0.70;0.47;;;;;;;;;;5052964;28;20475;-76
2023/01/15 10:23:09;;;;;;;0.80;0.50;;;;;;;;;;5056275;28;20057;-78
2023/01/15 10:25:49;;;;;;;0.77;0.52;;;;;;;;;;5052417;28;20043;-76
2023/01/15 10:28:35;;;;;;;0.45;0.45;;;;;;;;;;5054362;28;20116;-84
2023/01/15 10:31:08;;;;;;;1.17;0.47;;;;;;;;;;5047653;28;20059;-83
2023/01/15 10:33:52;;;;;;;1.70;0.75;;;;;;;;;;5060968;28;20053;-84
2023/01/15 10:36:25;;;;;;;2.40;0.55;;;;;;;;;;5050042;28;20074;-85
2023/01/15 10:39:01;;;;;;;1.20;0.55;;;;;;;;;;5056067;28;20024;-85
2023/01/15 10:41:31;;;;;;;2.88;0.63;;;;;;;;;;5056002;28;20263;-82
2023/01/15 10:44:14;;;;;;;1.10;0.70;;;;;;;;;;5059773;28;20027;-80
2023/01/15 10:46:40;;;;;;;3.40;0.60;;;;;;;;;;5059388;28;20024;-78
2023/01/15 10:49:14;;;;;;;2.67;1.08;;;;;;;;;;5054056;28;20024;-78
2023/01/15 10:51:52;;;;;;;1.02;0.55;;;;;;;;;;5054507;28;20033;-78
2023/01/15 10:54:45;;;;;;;0.65;0.50;;;;;;;;;;5059036;28;20466;-77
2023/01/15 10:57:36;;;;;;;1.58;0.70;;;;;;;;;;5050895;28;20610;-77
2023/01/15 11:00:02;;;;;;;1.23;0.68;;;;;;;;;;5063324;28;20040;-75
2023/01/15 11:02:37;;;;;;;1.60;0.68;;;;;;;;;;5065033;28;20060;-75
2023/01/15 11:05:03;;;;;;;1.90;0.80;;;;;;;;;;5053391;28;20040;-75
2023/01/15 11:07:41;;;;;;;0.47;0.47;;;;;;;;;;5052866;28;20021;-75
2023/01/15 11:10:12;;;;;;;2.88;0.88;;;;;;;;;;5056655;28;20107;-76
2023/01/15 11:21:30;;;;;;;1.08;0.70;;;;;;;;;;5063693;28;20553;-75
2023/01/15 11:23:58;;;;;;;1.30;0.65;;;;;;;;;;5060510;28;20085;-75
2023/01/15 11:26:29;;;;;;;0.43;0.40;;;;;;;;;;5057608;28;20727;-74
2023/01/15 11:28:55;;;;;;;1.43;0.67;;;;;;;;;;5053756;28;20029;-76
2023/01/15 11:31:21;;;;;;;1.30;0.65;;;;;;;;;;5060158;28;20744;-76
2023/01/15 11:33:57;;;;;;;1.30;0.60;;;;;;;;;;5050316;28;20045;-74
2023/01/15 11:36:24;;;;;;;0.95;0.60;;;;;;;;;;5060660;28;20028;-73
2023/01/15 11:38:50;;;;;;;2.72;1.08;;;;;;;;;;5066213;28;20440;-73
2023/01/15 11:41:21;;;;;;;0.50;0.50;;;;;;;;;;5052594;28;20088;-73
2023/01/15 11:52:13;;;;;;;1.05;0.50;;;;;;;;;;5048987;28;20044;-73
2023/01/15 11:54:41;;;;;;;1.00;0.52;;;;;;;;;;5054005;28;20105;-73
2023/01/15 11:57:07;;;;;;;1.83;0.95;;;;;;;;;;5063173;28;20043;-74
2023/01/15 11:59:33;;;;;;;6.70;0.50;;;;;;;;;;5052804;28;20549;-75
2023/01/15 12:02:03;;;;;;;3.50;1.00;;;;;;;;;;5047123;28;20115;-75
2023/01/15 12:04:34;;;;;;;1.27;0.50;;;;;;;;;;5052679;28;20038;-75
2023/01/15 12:07:01;;;;;;;1.73;0.70;;;;;;;;;;5052605;28;20107;-74
2023/01/15 12:10:02;;;;;;;2.38;0.50;;;;;;;;;;5049625;28;20613;-75
2023/01/15 12:12:47;;;;;;;1.48;0.77;;;;;;;;;;5049781;28;20029;-72
2023/01/15 12:15:21;;;;;;;1.27;0.50;;;;;;;;;;5050824;28;20029;-75
2023/01/15 12:18:05;;;;;;;2.53;0.75;;;;;;;;;;5045596;28;20029;-75
2023/01/15 12:20:31;;;;;;;0.40;0.40;;;;;;;;;;5058071;28;20025;-75
2023/01/15 12:23:18;;;;;;;1.45;0.68;;;;;;;;;;5058676;28;20059;-75
2023/01/15 12:25:52;;;;;;;2.58;0.65;;;;;;;;;;5052621;28;20032;-74
2023/01/15 12:28:24;;;;;;;2.15;0.90;;;;;;;;;;5062436;28;20506;-75
2023/01/15 12:31:00;;;;;;;0.50;0.50;;;;;;;;;;5065176;28;20105;-76
2023/01/15 12:33:45;;;;;;;0.70;0.50;;;;;;;;;;5063662;28;20085;-76
2023/01/15 12:36:28;;;;;;;1.23;0.65;;;;;;;;;;5065330;28;20639;-75
2023/01/15 12:39:03;;;;;;;0.40;0.40;;;;;;;;;;5052718;28;20017;-75
2023/01/15 12:47:22;;;;;;;0.43;0.43;;;;;;;;;;5057782;28;20400;-74
2023/01/15 12:49:50;;;;;;;0.95;0.60;;;;;;;;;;5061140;28;20024;-75
2023/01/15 12:52:23;;;;;;;0.45;0.45;;;;;;;;;;5052967;28;20032;-75
2023/01/15 12:55:13;;;;;;;0.40;0.40;;;;;;;;;;5067780;28;20112;-75
2023/01/15 12:57:41;;;;;;;0.68;0.50;;;;;;;;;;5067425;28;20033;-74
2023/01/15 13:00:13;;;;;;;0.43;0.40;;;;;;;;;;5068323;28;20036;-73
2023/01/15 13:02:57;;;;;;;1.25;0.63;;;;;;;;;;5060712;28;20032;-74
2023/01/15 13:05:25;;;;;;;0.55;0.50;;;;;;;;;;5064959;28;20116;-75
2023/01/15 13:07:54;;;;;;;0.38;0.38;;;;;;;;;;5055086;28;20025;-75
2023/01/15 13:10:23;;;;;;;0.55;0.50;;;;;;;;;;5060497;28;20032;-75
2023/01/15 13:12:49;;;;;;;6.05;0.40;;;;;;;;;;5063627;28;20036;-75
2023/01/15 13:15:16;;;;;;;1.02;0.50;;;;;;;;;;5057498;28;20036;-76
2023/01/15 13:17:48;;;;;;;0.95;0.70;;;;;;;;;;5049828;28;20029;-76
2023/01/15 13:20:27;;;;;;;0.55;0.38;;;;;;;;;;5060234;28;20025;-81
2023/01/15 13:23:03;;;;;;;1.67;0.43;;;;;;;;;;5054334;28;20033;-81
2023/01/15 13:25:40;;;;;;;2.47;0.57;;;;;;;;;;5051098;28;20120;-81
2023/01/15 13:28:12;;;;;;;0.50;0.45;;;;;;;;;;5053596;28;20067;-81
2023/01/15 13:30:41;;;;;;;4.57;0.60;;;;;;;;;;5052706;28;20045;-80
2023/01/15 13:33:17;;;;;;;0.22;0.22;;;;;;;;;;5053659;28;20029;-82
2023/01/15 13:35:46;;;;;;;0.60;0.40;;;;;;;;;;5051320;28;20033;-83
2023/01/15 13:38:16;;;;;;;0.47;0.45;;;;;;;;;;5055874;28;20064;-85
2023/01/15 13:40:52;;;;;;;1.33;0.52;;;;;;;;;;5053504;28;20043;-85
2023/01/15 13:43:25;;;;;;;0.30;0.30;;;;;;;;;;5051992;28;20066;-80
2023/01/15 13:45:51;;;;;;;1.48;0.55;;;;;;;;;;5062409;28;20036;-78
2023/01/15 13:48:19;;;;;;;0.73;0.40;;;;;;;;;;5052513;28;20031;-83
2023/01/15 13:50:53;;;;;;;0.52;0.30;;;;;;;;;;5053042;28;20036;-86
2023/01/15 13:53:28;;;;;;;0.45;0.38;;;;;;;;;;5063231;28;20028;-83
2023/01/15 13:56:08;;;;;;;0.47;0.40;;;;;;;;;;5064742;28;20030;-80
2023/01/15 13:58:54;;;;;;;0.30;0.22;;;;;;;;;;5064033;28;20058;-77
2023/01/15 14:01:25;;;;;;;1.63;0.40;;;;;;;;;;5062372;28;20688;-83
2023/01/15 14:04:02;;;;;;;0.90;0.57;;;;;;;;;;5058058;28;20024;-81
2023/01/15 14:06:37;;;;;;;2.50;0.95;;;;;;;;;;5057287;28;20041;-76
2023/01/15 14:09:04;;;;;;;3.40;1.15;;;;;;;;;;5055647;28;20025;-85
2023/01/15 14:11:48;;;;;;;2.42;1.50;;;;;;;;;;5059025;28;20037;-84
2023/01/15 14:14:17;;;;;;;1.52;1.20;;;;;;;;;;5052525;28;20033;-79
2023/01/15 14:16:43;;;;;;;1.25;1.15;;;;;;;;;;5063397;28;20428;-83
2023/01/15 14:19:24;;;;;;;3.95;1.33;;;;;;;;;;5054356;28;20013;-79
2023/01/15 14:21:53;;;;;;;1.90;1.08;;;;;;;;;;5050482;28;20574;-79
2023/01/15 14:24:27;;;;;;;2.50;1.15;;;;;;;;;;5057601;28;20036;-80
2023/01/15 14:27:01;;;;;;;5.85;1.50;;;;;;;;;;5055783;28;20025;-79
2023/01/15 14:29:33;;;;;;;1.38;1.05;;;;;;;;;;5053353;28;20028;-79
2023/01/15 14:32:02;;;;;;;2.65;1.30;;;;;;;;;;5053518;28;20051;-76
2023/01/15 14:34:33;;;;;;;1.95;1.25;;;;;;;;;;5050161;28;20025;-78
2023/01/15 14:37:03;;;;;;;1.42;1.10;;;;;;;;;;5052021;28;20024;-78
2023/01/15 14:39:32;;;;;;;2.10;1.25;;;;;;;;;;5053549;28;20036;-76
2023/01/15 14:44:46;;;;;;;2.67;1.60;;;;;;;;;;5059395;28;20047;-75
2023/01/15 14:47:21;;;;;;;2.97;1.13;;;;;;;;;;5052092;28;20048;-76
2023/01/15 14:49:48;;;;;;;3.28;1.42;;;;;;;;;;5056558;28;20025;-79
2023/01/15 14:52:16;;;;;;;3.92;1.48;;;;;;;;;;5049866;28;20490;-75
2023/01/15 14:54:43;;;;;;;5.78;1.20;;;;;;;;;;5054587;28;20440;-75
2023/01/15 14:57:09;;;;;;;2.20;1.35;;;;;;;;;;5051740;28;20120;-77
2023/01/15 14:59:35;;;;;;;4.57;1.27;;;;;;;;;;5052630;28;20025;-77
2023/01/15 15:02:02;;;;;;;1.25;1.00;;;;;;;;;;5053766;28;20169;-76
2023/01/15 15:04:41;;;;;;;1.88;1.08;;;;;;;;;;5053511;28;20144;-75
2023/01/15 15:07:11;;;;;;;2.35;1.17;;;;;;;;;;5062798;28;20151;-76
2023/01/15 15:09:41;;;;;;;1.33;1.13;;;;;;;;;;5054645;28;20115;-76
2023/01/15 15:12:19;;;;;;;2.17;1.00;;;;;;;;;;5058212;28;20112;-76
2023/01/15 15:14:49;;;;;;;1.35;0.90;;;;;;;;;;5057321;28;20672;-76
2023/01/15 15:17:38;;;;;;;1.52;1.10;;;;;;;;;;5054033;28;20033;-76
2023/01/15 15:20:17;;;;;;;2.72;1.45;;;;;;;;;;5045565;28;20476;-76
2023/01/15 15:22:43;;;;;;;6.43;1.30;;;;;;;;;;5056473;28;21686;-76
2023/01/15 15:25:11;;;;;;;3.92;1.10;;;;;;;;;;5053294;28;20033;-76
2023/01/15 15:27:37;;;;;;;2.20;1.35;;;;;;;;;;5056362;28;20043;-76
2023/01/15 15:30:07;;;;;;;1.50;1.08;;;;;;;;;;5050287;28;20024;-76
2023/01/15 15:32:38;;;;;;;2.17;0.85;;;;;;;;;;5056698;28;20048;-76
2023/01/15 15:35:05;;;;;;;1.10;0.95;;;;;;;;;;5051013;28;20747;-77
2023/01/15 15:37:33;;;;;;;2.67;1.05;;;;;;;;;;5052486;28;20472;-76
2023/01/15 15:40:05;;;;;;;2.78;0.98;;;;;;;;;;5049678;28;20029;-76
2023/01/15 15:50:55;;;;;;;1.15;1.05;;;;;;;;;;5055225;28;20097;-74
2023/01/15 15:53:21;;;;;;;1.40;1.15;;;;;;;;;;5055414;28;20037;-75
2023/01/15 15:55:47;;;;;;;2.17;1.02;;;;;;;;;;5057534;28;20071;-75
2023/01/15 15:58:24;;;;;;;1.13;0.90;;;;;;;;;;5062874;28;20476;-76
2023/01/15 16:00:54;;;;;;;1.23;0.80;;;;;;;;;;5052223;28;20012;-74
2023/01/15 16:03:22;;;;;;;2.63;0.90;;;;;;;;;;5051410;28;20037;-74
2023/01/15 16:06:07;;;;;;;1.10;0.85;;;;;;;;;;5065114;28;20025;-74
2023/01/15 16:08:34;;;;;;;1.48;1.00;;;;;;;;;;5057744;28;20115;-74